createdAt,value
2023-05-20T00:00:35.778Z,56.82
2023-05-20T00:03:02.494Z,56.85
2023-05-20T00:05:29.108Z,56.90
2023-05-20T00:07:55.789Z,56.74
2023-05-20T00:10:22.402Z,56.90
2023-05-20T00:12:48.965Z,57.00
2023-05-20T00:15:15.541Z,56.98
2023-05-20T00:17:42.215Z,57.01
2023-05-20T00:20:09.242Z,56.67
2023-05-20T00:22:36.034Z,56.60
2023-05-20T00:25:02.745Z,56.93
2023-05-20T00:27:29.383Z,56.95
2023-05-20T00:29:55.910Z,56.70
2023-05-20T00:32:22.523Z,56.96
2023-05-20T00:34:59.215Z,56.63
2023-05-20T00:37:26.103Z,56.76
2023-05-20T00:39:52.851Z,56.75
2023-05-20T00:42:27.478Z,56.84
2023-05-20T00:44:54.498Z,56.81
2023-05-20T00:47:25.357Z,56.58
2023-05-20T00:49:52.242Z,56.90
2023-05-20T00:52:19.374Z,56.67
2023-05-20T00:54:46.227Z,56.57
2023-05-20T00:57:13.719Z,56.88
2023-05-20T00:59:41.816Z,57.07
2023-05-20T01:02:09.536Z,56.92
2023-05-20T01:04:36.515Z,56.59
2023-05-20T01:07:07.363Z,56.80
2023-05-20T01:09:34.190Z,56.79
2023-05-20T01:12:07.057Z,56.57
2023-05-20T01:14:37.825Z,56.73
2023-05-20T01:17:09.687Z,56.80
2023-05-20T01:19:39.084Z,56.53
2023-05-20T01:22:07.799Z,56.54
2023-05-20T01:24:34.419Z,56.71
2023-05-20T01:27:00.957Z,56.35
2023-05-20T01:29:27.679Z,56.69
2023-05-20T01:31:55.236Z,56.72
2023-05-20T01:34:22.024Z,56.39
2023-05-20T01:36:49.019Z,56.48
2023-05-20T01:39:16.070Z,56.50
2023-05-20T01:41:43.020Z,56.52
2023-05-20T01:44:10.001Z,56.79
2023-05-20T01:46:36.740Z,56.33
2023-05-20T01:49:03.406Z,56.62
2023-05-20T01:51:30.919Z,56.58
2023-05-20T01:53:57.611Z,56.67
2023-05-20T01:56:24.208Z,56.53
2023-05-20T01:58:50.764Z,56.46
2023-05-20T02:01:17.402Z,56.32
2023-05-20T02:03:44.050Z,56.59
2023-05-20T02:06:10.610Z,56.58
2023-05-20T02:08:38.012Z,56.73
2023-05-20T02:11:04.737Z,56.53
2023-05-20T02:13:31.369Z,56.53
2023-05-20T02:15:57.911Z,56.25
2023-05-20T02:18:26.573Z,56.42
2023-05-20T02:20:53.559Z,56.13
2023-05-20T02:23:20.121Z,56.12
2023-05-20T02:25:46.942Z,56.52
2023-05-20T02:28:13.561Z,56.30
2023-05-20T02:30:40.247Z,56.47
2023-05-20T02:33:07.138Z,56.67
2023-05-20T02:35:34.053Z,56.34
2023-05-20T02:38:01.017Z,56.70
2023-05-20T02:40:27.582Z,56.86
2023-05-20T02:42:54.292Z,56.76
2023-05-20T02:45:20.965Z,56.89
2023-05-20T02:47:47.608Z,57.00
2023-05-20T02:50:14.222Z,56.64
2023-05-20T02:52:42.613Z,56.70
2023-05-20T02:55:09.924Z,56.82
2023-05-20T02:57:38.430Z,56.84
2023-05-20T03:00:07.211Z,56.54
2023-05-20T03:02:34.186Z,56.63
2023-05-20T03:05:00.821Z,56.67
2023-05-20T03:07:27.442Z,57.05
2023-05-20T03:09:54.032Z,56.71
2023-05-20T03:12:20.706Z,56.82
2023-05-20T03:14:47.268Z,56.87
2023-05-20T03:17:13.795Z,56.67
2023-05-20T03:19:40.587Z,56.93
2023-05-20T03:22:07.186Z,56.56
2023-05-20T03:24:33.754Z,56.84
2023-05-20T03:27:00.359Z,56.58
2023-05-20T03:29:27.112Z,56.55
2023-05-20T03:31:53.839Z,56.69
2023-05-20T03:34:20.631Z,56.57
2023-05-20T03:36:47.333Z,56.47
2023-05-20T03:39:15.117Z,56.28
2023-05-20T03:41:41.682Z,56.48
2023-05-20T03:44:08.380Z,56.31
2023-05-20T03:46:34.939Z,56.20
2023-05-20T03:49:05.589Z,56.40
2023-05-20T03:51:32.230Z,56.17
2023-05-20T03:53:58.794Z,56.55
2023-05-20T03:56:26.470Z,56.45
2023-05-20T03:58:53.624Z,56.33
2023-05-20T04:01:21.345Z,56.34
2023-05-20T04:03:48.167Z,56.28
2023-05-20T04:06:14.843Z,56.37
2023-05-20T04:08:42.458Z,56.47
2023-05-20T04:11:09.115Z,56.63
2023-05-20T04:13:35.662Z,56.17
2023-05-20T04:16:02.988Z,56.61
2023-05-20T04:18:31.868Z,56.76
2023-05-20T04:21:01.732Z,56.88
2023-05-20T04:23:28.447Z,56.53
2023-05-20T04:25:55.224Z,56.90
2023-05-20T04:28:23.994Z,56.57
2023-05-20T04:30:58.978Z,56.98
2023-05-20T04:33:26.681Z,56.86
2023-05-20T04:35:53.296Z,56.74
2023-05-20T04:38:19.893Z,56.78
2023-05-20T04:40:46.497Z,56.85
2023-05-20T04:43:13.059Z,56.83
2023-05-20T04:45:40.424Z,57.03
2023-05-20T04:48:07.062Z,57.06
2023-05-20T04:50:34.884Z,57.12
2023-05-20T04:53:01.514Z,57.07
2023-05-20T04:55:28.840Z,56.93
2023-05-20T04:57:55.545Z,57.24
2023-05-20T05:00:22.184Z,57.17
2023-05-20T05:02:48.847Z,57.31
2023-05-20T05:05:15.634Z,56.95
2023-05-20T05:07:42.256Z,56.99
2023-05-20T05:10:09.212Z,56.97
2023-05-20T05:12:35.789Z,57.05
2023-05-20T05:15:02.385Z,57.10
2023-05-20T05:17:29.348Z,57.10
2023-05-20T05:20:12.482Z,57.13
2023-05-20T05:22:41.348Z,57.38
2023-05-20T05:25:08.828Z,57.25
2023-05-20T05:27:36.027Z,57.41
2023-05-20T05:30:04.224Z,57.30
2023-05-20T05:32:31.198Z,57.17
2023-05-20T05:34:58.079Z,57.24
2023-05-20T05:37:24.710Z,57.33
2023-05-20T05:39:51.580Z,57.57
2023-05-20T05:42:18.188Z,57.57
2023-05-20T05:44:45.055Z,57.32
2023-05-20T05:47:11.925Z,57.02
2023-05-20T05:49:38.569Z,57.11
2023-05-20T05:52:05.574Z,57.29
2023-05-20T05:54:32.234Z,57.33
2023-05-20T05:56:58.933Z,57.29
2023-05-20T05:59:25.634Z,57.51
2023-05-20T06:01:52.287Z,57.44
2023-05-20T06:04:18.958Z,57.51
2023-05-20T06:06:45.662Z,57.10
2023-05-20T06:09:12.274Z,57.39
2023-05-20T06:11:38.968Z,57.66
2023-05-20T06:14:05.524Z,57.62
2023-05-20T06:16:32.114Z,57.32
2023-05-20T06:18:59.714Z,57.19
2023-05-20T06:21:28.490Z,57.37
2023-05-20T06:23:55.104Z,57.36
2023-05-20T06:26:22.733Z,57.13
2023-05-20T06:28:49.308Z,57.19
2023-05-20T06:31:15.884Z,57.19
2023-05-20T06:33:42.510Z,57.48
2023-05-20T06:36:09.160Z,57.43
2023-05-20T06:38:35.744Z,57.21
2023-05-20T06:41:02.723Z,57.23
2023-05-20T06:43:29.543Z,57.03
2023-05-20T06:45:56.176Z,56.89
2023-05-20T06:48:23.192Z,56.94
2023-05-20T06:50:49.992Z,57.12
2023-05-20T06:53:17.042Z,56.89
2023-05-20T06:55:43.771Z,56.74
2023-05-20T06:58:10.662Z,56.87
2023-05-20T07:00:37.216Z,56.78
2023-05-20T07:03:03.917Z,56.74
2023-05-20T07:05:31.580Z,56.65
2023-05-20T07:07:58.249Z,56.82
2023-05-20T07:10:24.986Z,56.63
2023-05-20T07:12:51.893Z,56.58
2023-05-20T07:15:18.606Z,56.37
2023-05-20T07:17:45.228Z,56.22
2023-05-20T07:20:12.122Z,56.59
2023-05-20T07:22:38.717Z,56.26
2023-05-20T07:25:05.731Z,56.33
2023-05-20T07:27:32.381Z,56.13
2023-05-20T07:30:00.435Z,56.36
2023-05-20T07:32:27.061Z,56.27
2023-05-20T07:34:53.695Z,56.17
2023-05-20T07:37:20.338Z,56.28
2023-05-20T07:39:46.994Z,56.22
2023-05-20T07:42:13.588Z,56.41
2023-05-20T07:44:40.198Z,56.40
2023-05-20T07:47:06.796Z,56.85
2023-05-20T07:49:33.533Z,56.92
2023-05-20T07:52:02.737Z,57.12
2023-05-20T07:54:29.636Z,57.57
2023-05-20T07:56:56.208Z,57.41
2023-05-20T07:59:22.866Z,57.65
2023-05-20T08:01:49.577Z,57.89
2023-05-20T08:04:16.316Z,58.21
2023-05-20T08:06:44.555Z,57.87
2023-05-20T08:09:11.316Z,58.27
2023-05-20T08:11:38.306Z,58.34
2023-05-20T08:14:04.997Z,58.53
2023-05-20T08:16:31.669Z,58.80
2023-05-20T08:18:58.394Z,58.99
2023-05-20T08:21:25.035Z,59.18
2023-05-20T08:23:51.608Z,58.96
2023-05-20T08:26:18.194Z,59.03
2023-05-20T08:28:44.817Z,59.11
2023-05-20T08:31:13.275Z,59.37
2023-05-20T08:33:40.380Z,59.77
2023-05-20T08:36:08.453Z,59.72
2023-05-20T08:38:35.138Z,59.79
2023-05-20T08:41:03.773Z,60.04
2023-05-20T08:43:32.599Z,59.61
2023-05-20T08:45:59.422Z,59.91
2023-05-20T08:48:28.141Z,59.44
2023-05-20T08:50:57.908Z,59.81
2023-05-20T08:53:24.521Z,59.80
2023-05-20T08:56:02.905Z,59.50
2023-05-20T08:58:30.415Z,59.77
2023-05-20T09:00:58.838Z,59.73
2023-05-20T09:03:25.832Z,59.94
2023-05-20T09:05:53.438Z,59.73
2023-05-20T09:08:24.103Z,59.77
2023-05-20T09:10:52.604Z,59.93
2023-05-20T09:13:19.771Z,60.26
2023-05-20T09:15:47.105Z,59.88
2023-05-20T09:18:13.780Z,60.22
2023-05-20T09:20:41.345Z,60.49
2023-05-20T09:23:09.580Z,60.62
2023-05-20T09:25:37.456Z,60.38
2023-05-20T09:28:08.759Z,60.09
2023-05-20T09:30:35.720Z,60.45
2023-05-20T09:33:05.045Z,60.20
2023-05-20T09:35:35.695Z,60.59
2023-05-20T09:38:03.543Z,60.47
2023-05-20T09:40:30.383Z,60.59
2023-05-20T09:42:59.970Z,60.55
2023-05-20T09:45:27.165Z,60.35
2023-05-20T09:47:55.144Z,60.30
2023-05-20T09:50:23.378Z,60.35
2023-05-20T09:52:51.601Z,60.35
2023-05-20T09:55:19.560Z,60.55
2023-05-20T09:57:47.257Z,60.68
2023-05-20T10:00:17.264Z,60.57
2023-05-20T10:02:46.082Z,60.82
2023-05-20T10:05:17.861Z,60.80
2023-05-20T10:08:03.132Z,60.46
2023-05-20T10:10:41.712Z,60.58
2023-05-20T10:13:18.675Z,60.26
2023-05-20T10:15:51.743Z,60.45
2023-05-20T10:18:30.145Z,60.84
2023-05-20T10:20:56.831Z,60.79
2023-05-20T10:23:32.504Z,60.95
2023-05-20T10:25:59.240Z,60.81
2023-05-20T10:28:30.910Z,60.75
2023-05-20T12:28:17.854Z,59.63
2023-05-20T12:30:44.485Z,59.32
2023-05-20T12:33:11.066Z,59.40
2023-05-20T12:35:40.236Z,59.04
2023-05-20T12:38:07.540Z,58.84
2023-05-20T12:40:34.688Z,58.70
2023-05-20T12:43:03.042Z,58.35
2023-05-20T12:45:29.937Z,58.31
2023-05-20T12:47:57.514Z,58.21
2023-05-20T12:50:24.770Z,58.17
2023-05-20T12:52:51.422Z,58.07
2023-05-20T12:55:18.050Z,57.89
2023-05-20T12:57:45.674Z,57.65
2023-05-20T13:00:13.074Z,57.50
2023-05-20T13:02:41.303Z,57.03
2023-05-20T13:05:08.393Z,56.97
2023-05-20T13:07:35.129Z,56.78
2023-05-20T13:10:02.049Z,56.55
2023-05-20T13:12:28.662Z,56.55
2023-05-20T13:14:55.413Z,56.35
2023-05-20T13:17:22.069Z,56.30
2023-05-20T13:19:48.916Z,56.26
2023-05-20T13:22:15.498Z,56.09
2023-05-20T13:24:42.044Z,56.29
2023-05-20T13:27:08.620Z,55.97
2023-05-20T13:29:36.683Z,55.70
2023-05-20T13:32:03.985Z,55.20
2023-05-20T13:34:30.761Z,55.45
2023-05-20T13:36:57.396Z,55.19
2023-05-20T13:39:23.979Z,55.16
2023-05-20T13:41:50.868Z,55.16
2023-05-20T13:44:17.479Z,55.33
2023-05-20T13:46:44.207Z,55.12
2023-05-20T13:49:10.771Z,55.14
2023-05-20T13:51:37.415Z,55.00
2023-05-20T13:54:04.169Z,54.96
2023-05-20T13:56:30.760Z,54.87
2023-05-20T13:58:57.376Z,55.07
2023-05-20T14:01:24.161Z,55.05
2023-05-20T14:03:51.032Z,55.11
2023-05-20T14:06:18.924Z,54.83
2023-05-20T14:08:46.198Z,54.72
2023-05-20T14:11:12.822Z,54.69
2023-05-20T14:13:39.435Z,54.76
2023-05-20T14:16:06.316Z,54.75
2023-05-20T14:18:32.977Z,54.64
2023-05-20T14:20:59.763Z,54.48
2023-05-20T14:23:26.336Z,54.33
2023-05-20T14:25:53.012Z,54.16
2023-05-20T14:28:19.567Z,54.29
2023-05-20T14:30:46.124Z,54.01
2023-05-20T14:33:12.817Z,53.91
2023-05-20T14:35:39.420Z,53.98
2023-05-20T14:38:06.941Z,53.92
2023-05-20T14:40:33.793Z,53.79
2023-05-20T14:43:00.576Z,53.83
2023-05-20T14:45:27.384Z,53.58
2023-05-20T14:47:54.058Z,53.49
2023-05-20T14:50:20.875Z,53.28
2023-05-20T14:52:47.412Z,53.30
2023-05-20T14:55:14.150Z,53.42
2023-05-20T14:57:40.967Z,53.26
2023-05-20T15:00:09.357Z,53.55
2023-05-20T15:02:36.117Z,53.51
2023-05-20T15:05:02.930Z,53.20
2023-05-20T15:07:29.528Z,53.12
2023-05-20T15:09:56.396Z,53.17
2023-05-20T15:12:23.056Z,53.28
2023-05-20T15:14:49.687Z,53.20
2023-05-20T15:17:16.477Z,53.32
2023-05-20T15:19:43.058Z,53.21
2023-05-20T15:22:09.772Z,52.92
2023-05-20T15:24:39.112Z,53.08
2023-05-20T15:27:06.511Z,53.09
2023-05-20T15:29:33.243Z,53.16
2023-05-20T15:31:59.945Z,53.02
2023-05-20T15:34:26.561Z,52.96
2023-05-20T15:36:53.338Z,53.09
2023-05-20T15:39:20.032Z,53.09
2023-05-20T15:41:48.153Z,53.26
2023-05-20T15:44:14.735Z,53.10
2023-05-20T15:46:41.525Z,53.44
2023-05-20T15:49:08.186Z,53.13
2023-05-20T15:51:34.762Z,53.24
2023-05-20T15:54:01.370Z,53.29
2023-05-20T15:56:29.095Z,53.25
2023-05-20T15:58:56.288Z,53.38
2023-05-20T16:01:23.605Z,53.36
2023-05-20T16:03:50.485Z,53.35
2023-05-20T16:06:17.273Z,53.43
2023-05-20T16:08:43.929Z,53.45
2023-05-20T16:11:10.565Z,53.38
2023-05-20T16:13:37.222Z,53.42
2023-05-20T16:16:04.109Z,53.39
2023-05-20T16:18:30.951Z,53.76
2023-05-20T16:20:57.872Z,53.67
2023-05-20T16:23:24.587Z,53.68
2023-05-20T16:25:51.520Z,53.63
2023-05-20T16:28:18.292Z,53.75
2023-05-20T16:30:44.905Z,53.70
2023-05-20T16:33:13.323Z,53.77
2023-05-20T16:35:40.089Z,53.88
2023-05-20T16:38:07.027Z,53.79
2023-05-20T16:40:33.981Z,53.90
2023-05-20T16:43:01.162Z,53.84
2023-05-20T16:45:27.840Z,53.85
2023-05-20T16:47:55.624Z,54.19
2023-05-20T16:50:22.411Z,53.96
2023-05-20T16:52:49.031Z,54.08
2023-05-20T16:55:16.032Z,54.06
2023-05-20T16:57:43.337Z,54.21
2023-05-20T17:00:11.613Z,54.31
2023-05-20T17:02:38.415Z,54.37
2023-05-20T17:05:05.530Z,54.49
2023-05-20T17:07:33.539Z,54.37
2023-05-20T17:10:00.533Z,54.53
2023-05-20T17:12:27.424Z,54.37
2023-05-20T17:14:54.291Z,54.32
2023-05-20T17:17:22.739Z,54.30
2023-05-20T17:19:49.440Z,54.33
2023-05-20T17:22:16.259Z,54.67
2023-05-20T17:24:42.814Z,54.83
2023-05-20T17:27:09.574Z,54.79
2023-05-20T17:29:36.330Z,54.90
2023-05-20T17:32:03.021Z,55.15
2023-05-20T17:34:29.940Z,54.92
2023-05-20T17:36:57.226Z,54.97
2023-05-20T17:39:23.901Z,55.14
2023-05-20T17:41:50.601Z,54.98
2023-05-20T17:44:17.345Z,54.84
2023-05-20T17:46:44.167Z,54.98
2023-05-20T17:49:11.083Z,54.97
2023-05-20T17:51:37.765Z,54.97
2023-05-20T17:54:04.374Z,55.04
2023-05-20T17:56:31.096Z,55.17
2023-05-20T17:58:57.669Z,55.03
2023-05-20T18:01:24.258Z,54.86
2023-05-20T18:03:51.052Z,55.00
2023-05-20T18:06:18.076Z,54.91
2023-05-20T18:08:44.760Z,54.87
2023-05-20T18:11:11.667Z,55.08
2023-05-20T18:13:38.313Z,55.11
2023-05-20T18:16:05.636Z,55.12
2023-05-20T18:18:32.404Z,55.03
2023-05-20T18:20:59.057Z,55.41
2023-05-20T18:23:25.828Z,55.17
2023-05-20T18:25:52.471Z,54.94
2023-05-20T18:28:19.094Z,55.31
2023-05-20T18:30:45.947Z,55.06
2023-05-20T18:33:13.763Z,55.15
2023-05-20T18:35:40.377Z,55.04
2023-05-20T18:38:07.419Z,54.91
2023-05-20T18:40:34.436Z,55.14
2023-05-20T18:43:01.178Z,55.00
2023-05-20T18:45:27.765Z,55.17
2023-05-20T18:47:54.859Z,55.09
2023-05-20T18:50:21.534Z,54.98
2023-05-20T18:52:48.138Z,54.89
2023-05-20T18:55:14.786Z,55.19
2023-05-20T18:57:41.346Z,54.88
2023-05-20T19:00:12.093Z,54.87
2023-05-20T19:02:40.295Z,54.79
2023-05-20T19:05:08.383Z,54.88
2023-05-20T19:07:35.106Z,54.99
2023-05-20T19:10:02.810Z,54.79
2023-05-20T19:12:29.646Z,54.72
2023-05-20T19:14:56.432Z,55.11
2023-05-20T19:17:23.107Z,55.05
2023-05-20T19:19:49.955Z,55.02
2023-05-20T19:22:16.662Z,54.92
2023-05-20T19:24:43.341Z,54.82
2023-05-20T19:27:09.969Z,55.07
2023-05-20T19:29:36.585Z,55.01
2023-05-20T19:32:03.278Z,55.09
2023-05-20T19:34:29.941Z,55.07
2023-05-20T19:36:57.133Z,54.97
2023-05-20T19:39:23.989Z,55.18
2023-05-20T19:41:50.921Z,54.92
2023-05-20T19:44:18.913Z,54.83
2023-05-20T19:46:45.468Z,55.00
2023-05-20T19:49:12.046Z,54.99
2023-05-20T19:51:38.684Z,55.02
2023-05-20T19:54:05.286Z,55.15
2023-05-20T19:56:31.838Z,55.02
2023-05-20T19:59:01.841Z,55.04
2023-05-20T20:01:28.613Z,55.12
2023-05-20T20:03:55.580Z,55.12
2023-05-20T20:06:22.472Z,54.99
2023-05-20T20:08:49.296Z,55.16
2023-05-20T20:11:16.004Z,55.08
2023-05-20T20:13:42.619Z,55.34
2023-05-20T20:16:09.359Z,55.52
2023-05-20T20:18:36.020Z,55.20
2023-05-20T20:21:06.052Z,55.53
2023-05-20T20:23:32.956Z,55.71
2023-05-20T20:25:59.683Z,55.76
2023-05-20T20:28:26.307Z,55.62
2023-05-20T20:30:53.038Z,55.74
2023-05-20T20:33:19.789Z,55.88
2023-05-20T20:35:46.784Z,56.39
2023-05-20T20:38:13.594Z,56.47
2023-05-20T20:40:41.964Z,56.36
2023-05-20T20:43:09.499Z,56.25
2023-05-20T20:45:38.694Z,56.40
2023-05-20T20:48:08.068Z,56.55
2023-05-20T20:50:35.757Z,56.69
2023-05-20T20:53:02.715Z,56.61
2023-05-20T20:55:32.158Z,57.02
2023-05-20T20:58:02.797Z,57.00
2023-05-20T21:00:29.654Z,57.06
2023-05-20T21:02:56.436Z,57.04
2023-05-20T21:05:26.503Z,57.14
2023-05-20T21:07:58.066Z,57.32
2023-05-20T21:10:29.187Z,57.40
2023-05-20T21:12:57.065Z,57.63
2023-05-20T21:15:24.651Z,57.94
2023-05-20T21:17:51.732Z,58.11
2023-05-20T21:20:21.277Z,57.99
2023-05-20T21:22:48.555Z,58.07
2023-05-20T21:25:15.220Z,58.52
2023-05-20T21:27:41.853Z,58.57
2023-05-20T21:30:11.904Z,58.70
2023-05-20T21:32:39.113Z,58.68
2023-05-20T21:35:06.403Z,59.11
2023-05-20T21:37:33.012Z,59.01
2023-05-20T21:39:59.754Z,58.97
2023-05-20T21:42:26.425Z,59.32
2023-05-20T21:44:53.020Z,59.21
2023-05-20T21:47:20.778Z,59.58
2023-05-20T21:49:48.228Z,59.74
2023-05-20T21:52:15.065Z,59.71
2023-05-20T21:54:41.986Z,59.59
2023-05-20T21:57:08.780Z,59.59
2023-05-20T21:59:35.931Z,59.70
2023-05-20T22:02:02.627Z,60.02
2023-05-20T22:04:29.195Z,59.91
2023-05-20T22:06:56.483Z,59.81
2023-05-20T22:09:23.213Z,60.06
2023-05-20T22:11:50.927Z,60.26
2023-05-20T22:14:17.691Z,60.22
2023-05-20T22:16:48.593Z,60.49
2023-05-20T22:19:16.163Z,60.08
2023-05-20T22:21:50.266Z,60.53
2023-05-20T22:24:17.901Z,60.48
2023-05-20T22:26:44.761Z,60.65
2023-05-20T22:29:11.494Z,60.50
2023-05-20T22:31:38.318Z,60.54
2023-05-20T22:34:05.484Z,60.83
2023-05-20T22:36:36.587Z,60.70
2023-05-20T22:39:04.514Z,60.79
2023-05-20T22:41:31.407Z,60.72
2023-05-20T22:43:58.267Z,60.64
2023-05-20T22:46:25.467Z,60.46
2023-05-20T22:48:55.501Z,60.56
2023-05-20T22:51:22.880Z,60.53
2023-05-20T22:53:49.671Z,60.59
2023-05-20T22:56:16.610Z,60.65
2023-05-20T22:58:43.703Z,60.65
2023-05-20T23:01:10.574Z,60.50
2023-05-20T23:03:38.023Z,60.65
2023-05-20T23:06:04.866Z,60.73
2023-05-20T23:08:31.589Z,61.02
2023-05-20T23:10:58.207Z,60.71
2023-05-20T23:13:25.020Z,60.73
2023-05-20T23:15:51.654Z,61.10
2023-05-20T23:18:18.612Z,61.00
2023-05-20T23:20:45.245Z,60.83
2023-05-20T23:23:11.907Z,60.83
2023-05-20T23:25:39.328Z,61.13
2023-05-20T23:28:06.517Z,61.17
2023-05-20T23:30:34.784Z,61.14
2023-05-20T23:33:02.196Z,61.03
2023-05-20T23:35:28.978Z,61.13
2023-05-20T23:37:55.525Z,61.53
2023-05-20T23:40:22.390Z,61.64
2023-05-20T23:42:48.965Z,61.46
2023-05-20T23:45:15.591Z,61.61
2023-05-20T23:47:42.255Z,61.63
2023-05-20T23:50:09.523Z,61.44
2023-05-20T23:52:36.052Z,61.93
2023-05-20T23:55:02.647Z,61.65
2023-05-20T23:57:29.309Z,61.62
2023-05-20T23:59:55.890Z,61.58
